createdAt,value
2022-12-08T00:00:55.051Z,9.203682
2022-12-08T00:01:55.098Z,9.204000
2022-12-08T00:02:55.152Z,9.203592
2022-12-08T00:03:55.051Z,9.203916
2022-12-08T00:04:55.045Z,9.203924
2022-12-08T00:05:55.010Z,9.204006
2022-12-08T00:06:55.020Z,9.203727
2022-12-08T00:07:55.057Z,9.203751
2022-12-08T00:08:54.991Z,9.203860
2022-12-08T00:09:55.002Z,9.203819
2022-12-08T00:10:55.003Z,9.203689
2022-12-08T00:11:54.982Z,9.203627
2022-12-08T00:12:54.958Z,9.203747
2022-12-08T00:13:54.969Z,9.203891
2022-12-08T00:14:54.951Z,9.203830
2022-12-08T00:15:54.975Z,9.203759
2022-12-08T00:16:55.048Z,9.203769
2022-12-08T00:17:54.937Z,9.203842
2022-12-08T00:18:54.944Z,9.203830
2022-12-08T00:19:54.949Z,9.203645
2022-12-08T00:20:54.947Z,9.203871
2022-12-08T00:21:54.898Z,9.203613
2022-12-08T00:22:54.921Z,9.203722
2022-12-08T00:23:54.917Z,9.203903
2022-12-08T00:24:54.901Z,9.203860
2022-12-08T00:25:54.914Z,9.203774
2022-12-08T00:26:54.863Z,9.203786
2022-12-08T00:27:55.024Z,9.203745
2022-12-08T00:28:54.856Z,9.203740
2022-12-08T00:29:54.863Z,9.203629
2022-12-08T00:30:54.866Z,9.203738
2022-12-08T00:31:54.953Z,9.203777
2022-12-08T00:32:54.864Z,9.203717
2022-12-08T00:33:54.842Z,9.203698
2022-12-08T00:34:54.847Z,9.203827
2022-12-08T00:35:54.801Z,9.203847
2022-12-08T00:36:55.812Z,9.203782
2022-12-08T00:38:00.496Z,9.203790
2022-12-08T00:38:56.811Z,9.203892
2022-12-08T00:39:54.805Z,9.203776
2022-12-08T00:40:54.796Z,9.203579
2022-12-08T00:41:54.790Z,9.203952
2022-12-08T00:42:54.797Z,9.204154
2022-12-08T00:43:54.772Z,9.203901
2022-12-08T00:44:54.744Z,9.203707
2022-12-08T00:45:54.782Z,9.203906
2022-12-08T00:46:54.768Z,9.203521
2022-12-08T00:47:54.810Z,9.203751
2022-12-08T00:48:54.731Z,9.203726
2022-12-08T00:49:54.699Z,9.203871
2022-12-08T00:50:54.737Z,9.203869
2022-12-08T00:51:54.727Z,9.203692
2022-12-08T00:52:54.739Z,9.203746
2022-12-08T00:53:54.698Z,9.203625
2022-12-08T00:54:54.765Z,9.203643
2022-12-08T00:55:54.722Z,9.203699
2022-12-08T00:56:54.733Z,9.203679
2022-12-08T00:57:54.684Z,9.203622
2022-12-08T00:58:54.661Z,9.203702
2022-12-08T00:59:55.664Z,9.203671
2022-12-08T01:00:54.766Z,9.203671
2022-12-08T01:01:54.633Z,9.203562
2022-12-08T01:02:54.742Z,9.203642
2022-12-08T01:03:54.620Z,9.203632
2022-12-08T01:04:54.647Z,9.203823
2022-12-08T01:05:54.608Z,9.203723
2022-12-08T01:06:54.591Z,9.203762
2022-12-08T01:07:54.714Z,9.203591
2022-12-08T01:08:54.618Z,9.203678
2022-12-08T01:09:54.560Z,9.203586
2022-12-08T01:10:54.610Z,9.203705
2022-12-08T01:11:54.574Z,9.203659
2022-12-08T01:12:54.565Z,9.203691
2022-12-08T01:13:54.580Z,9.203696
2022-12-08T01:14:57.976Z,9.203732
2022-12-08T01:15:56.596Z,9.203721
2022-12-08T01:16:54.568Z,9.203634
2022-12-08T01:17:54.528Z,9.203650
2022-12-08T01:18:54.606Z,9.203605
2022-12-08T01:19:54.524Z,9.203545
2022-12-08T01:20:54.548Z,9.203778
2022-12-08T01:21:54.527Z,9.203758
2022-12-08T01:22:54.499Z,9.203671
2022-12-08T01:23:54.500Z,9.203760
2022-12-08T01:24:54.512Z,9.203725
2022-12-08T01:25:54.491Z,9.203594
2022-12-08T01:26:54.470Z,9.203741
2022-12-08T01:27:54.457Z,9.203696
2022-12-08T01:28:54.496Z,9.203608
2022-12-08T01:29:54.519Z,9.203548
2022-12-08T01:30:54.499Z,9.203588
2022-12-08T01:31:54.472Z,9.203731
2022-12-08T01:32:54.443Z,9.203681
2022-12-08T01:33:54.415Z,9.203692
2022-12-08T01:34:54.435Z,9.203677
2022-12-08T01:35:54.434Z,9.203762
2022-12-08T01:36:54.427Z,9.203662
2022-12-08T01:37:54.430Z,9.203603
2022-12-08T01:38:54.392Z,9.203681
2022-12-08T01:39:54.394Z,9.203720
2022-12-08T01:40:54.399Z,9.203850
2022-12-08T01:41:54.381Z,9.203526
2022-12-08T01:42:54.393Z,9.203897
2022-12-08T01:43:54.364Z,9.203424
2022-12-08T01:44:54.358Z,9.203767
2022-12-08T01:45:54.368Z,9.203723
2022-12-08T01:46:54.350Z,9.203803
2022-12-08T01:47:54.438Z,9.203701
2022-12-08T01:48:54.314Z,9.203830
2022-12-08T01:49:54.347Z,9.203778
2022-12-08T01:50:54.323Z,9.203531
2022-12-08T01:51:54.313Z,9.203735
2022-12-08T01:52:54.321Z,9.203840
2022-12-08T01:53:54.309Z,9.203490
2022-12-08T01:54:54.320Z,9.203457
2022-12-08T01:55:54.271Z,9.203722
2022-12-08T01:56:54.276Z,9.203757
2022-12-08T01:57:54.297Z,9.203474
2022-12-08T01:58:54.260Z,9.203758
2022-12-08T01:59:54.236Z,9.203787
2022-12-08T02:00:54.319Z,9.203739
2022-12-08T02:01:54.290Z,9.204123
2022-12-08T02:02:54.432Z,9.203982
2022-12-08T02:03:54.279Z,9.203930
2022-12-08T02:04:54.219Z,9.203720
2022-12-08T02:05:54.215Z,9.203602
2022-12-08T02:06:54.207Z,9.203634
2022-12-08T02:07:54.254Z,9.203638
2022-12-08T02:08:54.255Z,9.203624
2022-12-08T02:09:54.240Z,9.203402
2022-12-08T02:10:54.193Z,9.204103
2022-12-08T02:11:54.202Z,9.203877
2022-12-08T02:12:54.168Z,9.203835
2022-12-08T02:13:54.194Z,9.203687
2022-12-08T02:14:54.175Z,9.203751
2022-12-08T02:15:54.199Z,9.202960
2022-12-08T02:16:54.147Z,9.203183
2022-12-08T02:17:54.150Z,9.203195
2022-12-08T02:19:22.521Z,9.203270
2022-12-08T02:19:56.146Z,9.203299
2022-12-08T02:20:54.127Z,9.203417
2022-12-08T02:21:54.109Z,9.203448
2022-12-08T02:22:54.098Z,9.203608
2022-12-08T02:23:54.081Z,9.203541
2022-12-08T02:24:54.103Z,9.203629
2022-12-08T02:25:54.102Z,9.203386
2022-12-08T02:26:54.102Z,9.203349
2022-12-08T02:27:55.054Z,9.203727
2022-12-08T02:28:54.055Z,9.203696
2022-12-08T02:29:54.126Z,9.203614
2022-12-08T02:30:54.079Z,9.203436
2022-12-08T02:31:55.067Z,9.203689
2022-12-08T02:32:54.071Z,9.203512
2022-12-08T02:33:54.022Z,9.203514
2022-12-08T02:34:54.002Z,9.203507
2022-12-08T02:35:54.017Z,9.203576
2022-12-08T02:36:54.041Z,9.203762
2022-12-08T02:37:54.049Z,9.203544
2022-12-08T02:38:54.019Z,9.203654
2022-12-08T02:39:53.999Z,9.203470
2022-12-08T02:40:53.960Z,9.203418
2022-12-08T02:41:53.962Z,9.203486
2022-12-08T02:42:53.956Z,9.203447
2022-12-08T02:43:53.977Z,9.203553
2022-12-08T02:44:53.950Z,9.204052
2022-12-08T02:45:53.990Z,9.203862
2022-12-08T02:46:53.934Z,9.203616
2022-12-08T02:47:53.926Z,9.203692
2022-12-08T02:48:53.988Z,9.203613
2022-12-08T02:49:53.969Z,9.203795
2022-12-08T02:50:53.910Z,9.203822
2022-12-08T02:51:53.912Z,9.203644
2022-12-08T02:52:53.903Z,9.203575
2022-12-08T02:53:53.916Z,9.203518
2022-12-08T02:54:53.917Z,9.203641
2022-12-08T02:55:53.893Z,9.203418
2022-12-08T02:56:53.867Z,9.203360
2022-12-08T02:57:53.942Z,9.203554
2022-12-08T02:58:53.896Z,9.203395
2022-12-08T02:59:53.852Z,9.203384
2022-12-08T03:00:53.863Z,9.203580
2022-12-08T03:01:53.928Z,9.203758
2022-12-08T03:02:53.893Z,9.203623
2022-12-08T03:03:53.851Z,9.203398
2022-12-08T03:04:53.843Z,9.203313
2022-12-08T03:05:53.839Z,9.203348
2022-12-08T03:06:53.812Z,9.203259
2022-12-08T03:07:53.890Z,9.203040
2022-12-08T03:08:53.848Z,9.203057
2022-12-08T03:09:53.790Z,9.202843
2022-12-08T03:10:53.825Z,9.202929
2022-12-08T03:11:53.796Z,9.202736
2022-12-08T03:12:53.810Z,9.202736
2022-12-08T03:13:53.795Z,9.203908
2022-12-08T03:14:53.794Z,9.203954
2022-12-08T03:15:53.859Z,9.203363
2022-12-08T03:16:53.744Z,9.203349
2022-12-08T03:17:53.772Z,9.203607
2022-12-08T03:18:53.729Z,9.203607
2022-12-08T03:19:53.755Z,9.203607
2022-12-08T03:20:53.716Z,9.203164
2022-12-08T03:21:53.762Z,9.202778
2022-12-08T03:22:53.780Z,9.202795
2022-12-08T03:23:53.702Z,9.202795
2022-12-08T03:24:53.704Z,9.202795
2022-12-08T03:25:53.672Z,9.202795
2022-12-08T03:26:53.662Z,9.202795
2022-12-08T03:27:53.706Z,9.202960
2022-12-08T03:28:53.753Z,9.203157
2022-12-08T03:29:53.675Z,9.203157
2022-12-08T03:30:53.717Z,9.202749
2022-12-08T03:31:53.656Z,9.202909
2022-12-08T03:32:53.667Z,9.203845
2022-12-08T03:33:53.628Z,9.203845
2022-12-08T03:34:53.622Z,9.203813
2022-12-08T03:35:53.653Z,9.204006
2022-12-08T03:36:53.638Z,9.204006
2022-12-08T03:37:53.628Z,9.204006
2022-12-08T03:38:53.636Z,9.204006
2022-12-08T03:39:53.628Z,9.204006
2022-12-08T03:40:53.583Z,9.204006
2022-12-08T03:41:53.589Z,9.203892
2022-12-08T03:42:53.576Z,9.204562
2022-12-08T03:43:53.614Z,9.204598
2022-12-08T03:44:53.597Z,9.204266
2022-12-08T03:45:53.565Z,9.204720
2022-12-08T03:46:53.558Z,9.204580
2022-12-08T03:47:53.530Z,9.205585
2022-12-08T03:48:53.584Z,9.205296
2022-12-08T03:49:53.567Z,9.204746
2022-12-08T03:50:53.535Z,9.205230
2022-12-08T03:51:53.559Z,9.205308
2022-12-08T03:52:53.510Z,9.205308
2022-12-08T03:53:53.514Z,9.205308
2022-12-08T03:54:53.532Z,9.205308
2022-12-08T03:55:53.510Z,9.204800
2022-12-08T03:56:53.491Z,9.204154
2022-12-08T03:57:53.493Z,9.204154
2022-12-08T03:58:53.473Z,9.203647
2022-12-08T03:59:53.465Z,9.203901
2022-12-08T04:00:53.473Z,9.203339
2022-12-08T04:01:53.606Z,9.203897
2022-12-08T04:02:53.548Z,9.203652
2022-12-08T04:03:53.471Z,9.203614
2022-12-08T04:04:53.418Z,9.203836
2022-12-08T04:05:53.442Z,9.204235
2022-12-08T04:06:53.417Z,9.203783
2022-12-08T04:07:53.463Z,9.203789
2022-12-08T04:08:53.405Z,9.203510
2022-12-08T04:09:53.421Z,9.203938
2022-12-08T04:10:53.400Z,9.203685
2022-12-08T04:11:53.430Z,9.204085
2022-12-08T04:12:53.395Z,9.203785
2022-12-08T04:13:53.366Z,9.203614
2022-12-08T04:14:53.373Z,9.203614
2022-12-08T04:15:53.446Z,9.203507
2022-12-08T04:16:53.390Z,9.203540
2022-12-08T04:17:53.384Z,9.203630
2022-12-08T04:18:53.338Z,9.203555
2022-12-08T04:19:53.332Z,9.203470
2022-12-08T04:20:53.342Z,9.203504
2022-12-08T04:21:53.313Z,9.203602
2022-12-08T04:22:53.345Z,9.203747
2022-12-08T04:23:59.184Z,9.203995
2022-12-08T04:24:55.301Z,9.203588
2022-12-08T04:25:53.309Z,9.203759
2022-12-08T04:26:53.300Z,9.203501
2022-12-08T04:27:53.297Z,9.203810
2022-12-08T04:28:53.370Z,9.203636
2022-12-08T04:29:53.279Z,9.203550
2022-12-08T04:30:53.265Z,9.203364
2022-12-08T04:31:53.346Z,9.203621
2022-12-08T04:32:53.246Z,9.203729
2022-12-08T04:33:53.277Z,9.203678
2022-12-08T04:34:53.254Z,9.203727
2022-12-08T04:35:53.315Z,9.203794
2022-12-08T04:36:53.235Z,9.203584
2022-12-08T04:37:53.195Z,9.203633
2022-12-08T04:38:53.233Z,9.203469
2022-12-08T04:39:53.215Z,9.203594
2022-12-08T04:40:53.193Z,9.203678
2022-12-08T04:41:53.201Z,9.203440
2022-12-08T04:42:53.233Z,9.203541
2022-12-08T04:43:53.178Z,9.203486
2022-12-08T04:44:53.176Z,9.203652
2022-12-08T04:45:53.155Z,9.204137
2022-12-08T04:46:53.325Z,9.203575
2022-12-08T04:47:53.177Z,9.203790
2022-12-08T04:48:53.157Z,9.203768
2022-12-08T04:49:53.177Z,9.203756
2022-12-08T04:50:53.149Z,9.203719
2022-12-08T04:51:53.162Z,9.204016
2022-12-08T04:52:53.173Z,9.204154
2022-12-08T04:53:53.119Z,9.203822
2022-12-08T04:54:53.136Z,9.203793
2022-12-08T04:55:53.105Z,9.203545
2022-12-08T04:56:53.113Z,9.203668
2022-12-08T04:57:53.083Z,9.203662
2022-12-08T04:58:53.090Z,9.203827
2022-12-08T04:59:53.055Z,9.203738
2022-12-08T05:00:53.240Z,9.203702
2022-12-08T05:01:53.245Z,9.203739
2022-12-08T05:02:53.082Z,9.203703
2022-12-08T05:03:53.038Z,9.203657
2022-12-08T05:04:53.049Z,9.203672
2022-12-08T05:05:53.034Z,9.203729
2022-12-08T05:06:53.030Z,9.203630
2022-12-08T05:07:53.100Z,9.203663
2022-12-08T05:08:53.042Z,9.203690
2022-12-08T05:09:52.990Z,9.203600
2022-12-08T05:10:53.108Z,9.203671
2022-12-08T05:11:53.057Z,9.203734
2022-12-08T05:12:52.976Z,9.203773
2022-12-08T05:13:53.963Z,9.203737
2022-12-08T05:14:52.962Z,9.203755
2022-12-08T05:15:53.117Z,9.203683
2022-12-08T05:16:53.080Z,9.203722
2022-12-08T05:17:52.940Z,9.203646
2022-12-08T05:18:52.921Z,9.203693
2022-12-08T05:19:53.919Z,9.203740
2022-12-08T05:20:52.964Z,9.203641
2022-12-08T05:21:52.903Z,9.203825
2022-12-08T05:22:52.955Z,9.203791
2022-12-08T05:23:52.888Z,9.203808
2022-12-08T05:24:52.911Z,9.203955
2022-12-08T05:25:52.912Z,9.203786
2022-12-08T05:26:52.932Z,9.203807
2022-12-08T05:28:01.642Z,9.203827
2022-12-08T05:28:54.888Z,9.203853
2022-12-08T05:29:53.022Z,9.203753
2022-12-08T05:30:52.924Z,9.203533
2022-12-08T05:31:52.895Z,9.203486
2022-12-08T05:32:52.844Z,9.203629
2022-12-08T05:33:52.900Z,9.203723
2022-12-08T05:34:52.827Z,9.203720
2022-12-08T05:35:52.813Z,9.203934
2022-12-08T05:36:52.811Z,9.203731
2022-12-08T05:37:52.816Z,9.203946
2022-12-08T05:38:52.907Z,9.203859
2022-12-08T05:39:52.811Z,9.203668
2022-12-08T05:40:52.802Z,9.203875
2022-12-08T05:41:52.767Z,9.203853
2022-12-08T05:42:52.801Z,9.203844
2022-12-08T05:43:52.796Z,9.203747
2022-12-08T05:44:52.778Z,9.203858
2022-12-08T05:45:52.820Z,9.203874
2022-12-08T05:46:52.739Z,9.203776
2022-12-08T05:47:52.758Z,9.203689
2022-12-08T05:48:52.844Z,9.203901
2022-12-08T05:49:52.717Z,9.203774
2022-12-08T05:50:52.752Z,9.203694
2022-12-08T05:51:52.764Z,9.203856
2022-12-08T05:52:52.716Z,9.203854
2022-12-08T05:53:52.703Z,9.203691
2022-12-08T05:54:52.785Z,9.203475
2022-12-08T05:55:52.710Z,9.203782
2022-12-08T05:56:52.724Z,9.203668
2022-12-08T05:57:52.662Z,9.203657
2022-12-08T05:58:52.696Z,9.203475
2022-12-08T05:59:52.803Z,9.203706
2022-12-08T06:00:52.682Z,9.203890
2022-12-08T06:01:52.726Z,9.203780
2022-12-08T06:02:52.737Z,9.203648
2022-12-08T06:03:52.689Z,9.203941
2022-12-08T06:04:52.692Z,9.203962
2022-12-08T06:05:52.714Z,9.203813
2022-12-08T06:06:52.653Z,9.203953
2022-12-08T06:07:52.645Z,9.203915
2022-12-08T06:08:52.645Z,9.203817
2022-12-08T06:09:52.612Z,9.203844
2022-12-08T06:10:52.710Z,9.203682
2022-12-08T06:11:52.676Z,9.203765
2022-12-08T06:12:52.595Z,9.203740
2022-12-08T06:13:52.598Z,9.203808
2022-12-08T06:14:52.565Z,9.203750
2022-12-08T06:15:52.595Z,9.203730
2022-12-08T06:16:52.777Z,9.203758
2022-12-08T06:17:52.538Z,9.203789
2022-12-08T06:18:52.553Z,9.203751
2022-12-08T06:19:52.563Z,9.203836
2022-12-08T06:20:52.619Z,9.203871
2022-12-08T06:21:52.563Z,9.203631
2022-12-08T06:22:52.558Z,9.203743
2022-12-08T06:23:52.555Z,9.203919
2022-12-08T06:24:52.527Z,9.203839
2022-12-08T06:25:52.490Z,9.203746
2022-12-08T06:26:52.506Z,9.204042
2022-12-08T06:27:52.615Z,9.204170
2022-12-08T06:28:52.515Z,9.204126
2022-12-08T06:29:52.519Z,9.203938
2022-12-08T06:30:52.491Z,9.203827
2022-12-08T06:31:52.606Z,9.203886
2022-12-08T06:32:52.463Z,9.204006
2022-12-08T06:33:52.463Z,9.203744
2022-12-08T06:34:52.434Z,9.203795
2022-12-08T06:35:52.419Z,9.203761
2022-12-08T06:36:52.450Z,9.203814
2022-12-08T06:37:52.437Z,9.203804
2022-12-08T06:38:52.461Z,9.203782
2022-12-08T06:39:52.408Z,9.203765
2022-12-08T06:40:52.404Z,9.203615
2022-12-08T06:41:52.403Z,9.203731
2022-12-08T06:42:52.371Z,9.203706
2022-12-08T06:43:52.463Z,9.203792
2022-12-08T06:44:52.575Z,9.203591
2022-12-08T06:45:52.396Z,9.203446
2022-12-08T06:46:52.351Z,9.203806
2022-12-08T06:47:52.363Z,9.203580
2022-12-08T06:48:52.439Z,9.203711
2022-12-08T06:49:52.365Z,9.204021
2022-12-08T06:50:52.332Z,9.203939
2022-12-08T06:51:52.327Z,9.203844
2022-12-08T06:53:01.118Z,9.203650
2022-12-08T06:53:54.301Z,9.203652
2022-12-08T06:54:52.316Z,9.203779
2022-12-08T06:55:59.462Z,9.203879
2022-12-08T06:56:54.318Z,9.203805
2022-12-08T06:57:54.089Z,9.203623
2022-12-08T06:58:53.399Z,9.203629
2022-12-08T06:59:52.325Z,9.203779
2022-12-08T07:00:52.390Z,9.203652
2022-12-08T07:01:52.359Z,9.203640
2022-12-08T07:02:52.287Z,9.203536
2022-12-08T07:03:52.227Z,9.203636
2022-12-08T07:04:52.270Z,9.203650
2022-12-08T07:05:52.255Z,9.203647
2022-12-08T07:06:52.212Z,9.203727
2022-12-08T07:07:52.244Z,9.203666
2022-12-08T07:08:52.228Z,9.203718
2022-12-08T07:09:52.201Z,9.203865
2022-12-08T07:10:52.344Z,9.203808
2022-12-08T07:11:52.191Z,9.203752
2022-12-08T07:12:52.187Z,9.203710
2022-12-08T07:13:52.202Z,9.203768
2022-12-08T07:14:52.197Z,9.203737
2022-12-08T07:15:52.189Z,9.203647
2022-12-08T07:16:52.251Z,9.203733
2022-12-08T07:17:56.389Z,9.203866
2022-12-08T07:18:54.170Z,9.203691
2022-12-08T07:19:52.229Z,9.203959
2022-12-08T07:20:52.189Z,9.204137
2022-12-08T07:21:52.173Z,9.203814
2022-12-08T07:22:52.136Z,9.203845
2022-12-08T07:23:57.271Z,9.203745
2022-12-08T07:24:54.200Z,9.203877
2022-12-08T07:25:52.238Z,9.203614
2022-12-08T07:26:52.124Z,9.203376
2022-12-08T07:27:52.117Z,9.203530
2022-12-08T07:28:52.155Z,9.203747
2022-12-08T07:29:52.237Z,9.203896
2022-12-08T07:30:52.216Z,9.204199
2022-12-08T07:31:52.294Z,9.204052
2022-12-08T07:32:52.088Z,9.203392
2022-12-08T07:33:52.054Z,9.203529
2022-12-08T07:34:52.074Z,9.203980
2022-12-08T07:35:52.059Z,9.203870
2022-12-08T07:36:52.050Z,9.203552
2022-12-08T07:37:52.015Z,9.203849
2022-12-08T07:38:52.025Z,9.203785
2022-12-08T07:39:52.047Z,9.203991
2022-12-08T07:40:52.002Z,9.204144
2022-12-08T07:41:52.036Z,9.203792
2022-12-08T07:42:52.064Z,9.203837
2022-12-08T07:43:51.986Z,9.203793
2022-12-08T07:44:51.994Z,9.203745
2022-12-08T07:45:52.009Z,9.203907
2022-12-08T07:46:51.987Z,9.203938
2022-12-08T07:47:51.993Z,9.203927
2022-12-08T07:48:52.983Z,9.203972
2022-12-08T07:49:52.008Z,9.203842
2022-12-08T07:50:51.980Z,9.203876
2022-12-08T07:51:51.947Z,9.203790
2022-12-08T07:52:51.927Z,9.203794
2022-12-08T07:53:54.524Z,9.203870
2022-12-08T07:54:52.928Z,9.203769
2022-12-08T07:55:51.950Z,9.203656
2022-12-08T07:56:51.888Z,9.203771
2022-12-08T07:57:51.942Z,9.203829
2022-12-08T07:58:51.939Z,9.203692
2022-12-08T07:59:51.876Z,9.203725
2022-12-08T08:00:51.907Z,9.203815
2022-12-08T08:02:06.547Z,9.203782
2022-12-08T08:02:53.985Z,9.203749
2022-12-08T08:03:51.884Z,9.203575
2022-12-08T08:04:52.096Z,9.203638
2022-12-08T08:05:51.841Z,9.203747
2022-12-08T08:06:51.822Z,9.203674
2022-12-08T08:07:51.889Z,9.203747
2022-12-08T08:08:51.814Z,9.203776
2022-12-08T08:09:51.825Z,9.203773
2022-12-08T08:10:51.799Z,9.203809
2022-12-08T08:12:07.456Z,9.203926
2022-12-08T08:12:53.825Z,9.203862
2022-12-08T08:13:51.862Z,9.203789
2022-12-08T08:14:51.802Z,9.203718
2022-12-08T08:15:51.884Z,9.203610
2022-12-08T08:16:51.898Z,9.203553
2022-12-08T08:17:51.786Z,9.203257
2022-12-08T08:18:51.742Z,9.203396
2022-12-08T08:19:51.721Z,9.203689
2022-12-08T08:20:51.763Z,9.203765
2022-12-08T08:21:51.736Z,9.203698
2022-12-08T08:22:51.744Z,9.203877
2022-12-08T08:23:51.727Z,9.203752
2022-12-08T08:24:52.706Z,9.203661
2022-12-08T08:25:51.736Z,9.203561
2022-12-08T08:26:51.700Z,9.203442
2022-12-08T08:27:51.692Z,9.203623
2022-12-08T08:28:51.691Z,9.203372
2022-12-08T08:29:51.644Z,9.203606
2022-12-08T08:30:51.744Z,9.203647
2022-12-08T08:31:51.694Z,9.203769
2022-12-08T08:32:51.656Z,9.203867
2022-12-08T08:33:51.639Z,9.203632
2022-12-08T08:34:51.650Z,9.203712
2022-12-08T08:35:51.648Z,9.203833
2022-12-08T08:36:51.749Z,9.203722
2022-12-08T08:37:51.634Z,9.203652
2022-12-08T08:38:51.593Z,9.203731
2022-12-08T08:39:51.590Z,9.203847
2022-12-08T08:40:51.616Z,9.203711
2022-12-08T08:41:51.622Z,9.203757
2022-12-08T08:42:51.569Z,9.203763
2022-12-08T08:43:51.575Z,9.203629
2022-12-08T08:44:51.591Z,9.203514
2022-12-08T08:45:51.899Z,9.203718
2022-12-08T08:46:51.564Z,9.203737
2022-12-08T08:47:51.595Z,9.203588
2022-12-08T08:48:51.539Z,9.203808
2022-12-08T08:49:51.541Z,9.203645
2022-12-08T08:50:51.531Z,9.203785
2022-12-08T08:51:51.500Z,9.203735
2022-12-08T08:52:51.540Z,9.203678
2022-12-08T08:53:51.503Z,9.203687
2022-12-08T08:54:51.493Z,9.203541
2022-12-08T08:55:51.520Z,9.203635
2022-12-08T08:56:51.507Z,9.203599
2022-12-08T08:57:51.511Z,9.203682
2022-12-08T08:58:51.483Z,9.203728
2022-12-08T08:59:51.474Z,9.203623
2022-12-08T09:00:51.467Z,9.203571
2022-12-08T09:01:51.571Z,9.203633
2022-12-08T09:02:51.473Z,9.203603
2022-12-08T09:03:51.460Z,9.203643
2022-12-08T09:04:51.596Z,9.203645
2022-12-08T09:05:51.486Z,9.203876
2022-12-08T09:06:51.414Z,9.203798
2022-12-08T09:07:51.443Z,9.203769
2022-12-08T09:08:51.420Z,9.203777
2022-12-08T09:09:51.396Z,9.203698
2022-12-08T09:10:51.418Z,9.203796
2022-12-08T09:11:51.395Z,9.203723
2022-12-08T09:12:51.370Z,9.203673
2022-12-08T09:13:51.411Z,9.203460
2022-12-08T09:14:51.353Z,9.203676
2022-12-08T09:15:51.390Z,9.203723
2022-12-08T09:16:51.395Z,9.203752
2022-12-08T09:17:51.328Z,9.203730
2022-12-08T09:18:51.363Z,9.203750
2022-12-08T09:19:51.367Z,9.203646
2022-12-08T09:20:51.335Z,9.203592
2022-12-08T09:21:51.342Z,9.203540
2022-12-08T09:22:51.314Z,9.203574
2022-12-08T09:23:51.309Z,9.203785
2022-12-08T09:24:51.352Z,9.203533
2022-12-08T09:25:51.304Z,9.203690
2022-12-08T09:26:51.311Z,9.203657
2022-12-08T09:27:51.291Z,9.203638
2022-12-08T09:28:51.265Z,9.203816
2022-12-08T09:29:51.311Z,9.203889
2022-12-08T09:30:51.329Z,9.203791
2022-12-08T09:31:51.320Z,9.203819
2022-12-08T09:32:51.268Z,9.203867
2022-12-08T09:33:51.239Z,9.203741
2022-12-08T09:34:52.341Z,9.203836
2022-12-08T09:35:52.281Z,9.203615
2022-12-08T09:36:51.270Z,9.203777
2022-12-08T09:37:51.242Z,9.204099
2022-12-08T09:38:51.248Z,9.203918
2022-12-08T09:39:51.225Z,9.203922
2022-12-08T09:40:51.221Z,9.203513
2022-12-08T09:41:51.214Z,9.203543
2022-12-08T09:42:51.190Z,9.203413
2022-12-08T09:43:51.205Z,9.203944
2022-12-08T09:44:51.215Z,9.203202
2022-12-08T09:45:51.167Z,9.203330
2022-12-08T09:46:51.260Z,9.203965
2022-12-08T09:47:51.165Z,9.203780
2022-12-08T09:48:51.149Z,9.203731
2022-12-08T09:49:51.147Z,9.203738
2022-12-08T09:50:51.121Z,9.203855
2022-12-08T09:51:51.160Z,9.203670
2022-12-08T09:52:51.124Z,9.203978
2022-12-08T09:53:51.118Z,9.204328
2022-12-08T09:54:51.089Z,9.204095
2022-12-08T09:55:51.097Z,9.204207
2022-12-08T09:56:51.115Z,9.203956
2022-12-08T09:57:56.339Z,9.203746
2022-12-08T09:58:52.153Z,9.203533
2022-12-08T09:59:51.057Z,9.203790
2022-12-08T10:00:51.077Z,9.203955
2022-12-08T10:01:51.160Z,9.204086
2022-12-08T10:02:52.071Z,9.203800
2022-12-08T10:03:51.058Z,9.203513
2022-12-08T10:04:51.130Z,9.203802
2022-12-08T10:05:51.022Z,9.203817
2022-12-08T10:06:51.021Z,9.204104
2022-12-08T10:07:51.144Z,9.203699
2022-12-08T10:08:51.050Z,9.203987
2022-12-08T10:09:51.024Z,9.204178
2022-12-08T10:10:51.046Z,9.204052
2022-12-08T10:11:51.001Z,9.203251
2022-12-08T10:12:51.035Z,9.203525
2022-12-08T10:13:50.985Z,9.203691
2022-12-08T10:14:50.980Z,9.203726
2022-12-08T10:15:50.996Z,9.203738
2022-12-08T10:16:51.018Z,9.203781
2022-12-08T10:17:50.993Z,9.203709
2022-12-08T10:18:50.961Z,9.203639
2022-12-08T10:19:50.920Z,9.203802
2022-12-08T10:20:50.925Z,9.203537
2022-12-08T10:21:50.918Z,9.203517
2022-12-08T10:22:50.914Z,9.203593
2022-12-08T10:23:50.929Z,9.203772
2022-12-08T10:24:50.916Z,9.203415
2022-12-08T10:25:50.896Z,9.203628
2022-12-08T10:26:50.909Z,9.203593
2022-12-08T10:27:50.910Z,9.203552
2022-12-08T10:28:50.909Z,9.203498
2022-12-08T10:29:50.923Z,9.203728
2022-12-08T10:30:50.855Z,9.203726
2022-12-08T10:31:51.078Z,9.203641
2022-12-08T10:32:50.847Z,9.203755
2022-12-08T10:33:50.875Z,9.203629
2022-12-08T10:34:56.111Z,9.203485
2022-12-08T10:35:52.955Z,9.203695
2022-12-08T10:36:50.877Z,9.203654
2022-12-08T10:37:50.815Z,9.203981
2022-12-08T10:38:50.799Z,9.203648
2022-12-08T10:39:50.813Z,9.203671
2022-12-08T10:40:50.871Z,9.203842
2022-12-08T10:41:50.810Z,9.203377
2022-12-08T10:42:50.769Z,9.203631
2022-12-08T10:43:50.769Z,9.203962
2022-12-08T10:44:50.780Z,9.204268
2022-12-08T10:45:50.803Z,9.204268
2022-12-08T10:46:50.835Z,9.203637
2022-12-08T10:47:55.256Z,9.203934
2022-12-08T10:48:51.756Z,9.204057
2022-12-08T10:49:50.723Z,9.204001
2022-12-08T10:50:50.833Z,9.203658
2022-12-08T10:51:50.730Z,9.203609
2022-12-08T10:52:51.213Z,9.203774
2022-12-08T10:53:50.701Z,9.203599
2022-12-08T10:54:50.716Z,9.204275
2022-12-08T10:55:50.685Z,9.203884
2022-12-08T10:56:50.737Z,9.203664
2022-12-08T10:57:50.747Z,9.203765
2022-12-08T10:58:50.682Z,9.203673
2022-12-08T10:59:50.669Z,9.203162
2022-12-08T11:00:50.770Z,9.203427
2022-12-08T11:01:50.866Z,9.203722
2022-12-08T11:02:50.730Z,9.203826
2022-12-08T11:03:50.651Z,9.203857
2022-12-08T11:04:50.666Z,9.203780
2022-12-08T11:05:50.621Z,9.204246
2022-12-08T11:06:50.650Z,9.204114
2022-12-08T11:07:50.691Z,9.203691
2022-12-08T11:08:50.617Z,9.203530
2022-12-08T11:09:50.623Z,9.203656
2022-12-08T11:10:50.612Z,9.203803
2022-12-08T11:11:50.636Z,9.203606
2022-12-08T11:12:50.618Z,9.203804
2022-12-08T11:13:50.601Z,9.203713
2022-12-08T11:14:50.585Z,9.203592
2022-12-08T11:15:50.637Z,9.203772
2022-12-08T11:16:50.629Z,9.203623
2022-12-08T11:17:54.660Z,9.203523
2022-12-08T11:18:52.607Z,9.203449
2022-12-08T11:19:50.560Z,9.203568
2022-12-08T11:20:50.626Z,9.203723
2022-12-08T11:21:50.564Z,9.203373
2022-12-08T11:22:50.563Z,9.203640
2022-12-08T11:23:50.552Z,9.203818
2022-12-08T11:24:50.521Z,9.203580
2022-12-08T11:25:50.516Z,9.203587
2022-12-08T11:26:50.519Z,9.203810
2022-12-08T11:27:50.553Z,9.203769
2022-12-08T11:28:50.595Z,9.203660
2022-12-08T11:29:50.507Z,9.203740
2022-12-08T11:30:50.638Z,9.203871
2022-12-08T11:31:50.564Z,9.203874
2022-12-08T11:32:50.542Z,9.203732
2022-12-08T11:33:50.512Z,9.203800
2022-12-08T11:34:50.455Z,9.203593
2022-12-08T11:35:50.488Z,9.203671
2022-12-08T11:36:50.467Z,9.203543
2022-12-08T11:37:50.684Z,9.203591
2022-12-08T11:38:50.478Z,9.203760
2022-12-08T11:39:50.454Z,9.203862
2022-12-08T11:40:50.432Z,9.203948
2022-12-08T11:41:50.419Z,9.203982
2022-12-08T11:42:50.412Z,9.203995
2022-12-08T11:43:50.425Z,9.203777
2022-12-08T11:44:50.396Z,9.203829